sensor_id;sensor_type;location;lat;lon;timestamp;pressure;altitude;pressure_sealevel;temperature;humidity
42591;BME280;28218;53.342;-6.216;2023-12-22T00:00:35;101129.84;;;11.49;100.00
42591;BME280;28218;53.342;-6.216;2023-12-22T00:03:03;101112.72;;;11.53;100.00
42591;BME280;28218;53.342;-6.216;2023-12-22T00:05:32;101115.34;;;11.53;100.00
42591;BME280;28218;53.342;-6.216;2023-12-22T00:08:00;101104.44;;;11.56;100.00
42591;BME280;28218;53.342;-6.216;2023-12-22T00:10:28;101096.38;;;11.58;100.00
42591;BME280;28218;53.342;-6.216;2023-12-22T00:12:58;101110.53;;;11.57;100.00
42591;BME280;28218;53.342;-6.216;2023-12-22T00:15:26;101094.38;;;11.60;100.00
42591;BME280;28218;53.342;-6.216;2023-12-22T00:17:54;101090.09;;;11.59;100.00
42591;BME280;28218;53.342;-6.216;2023-12-22T00:20:23;101095.03;;;11.62;100.00
42591;BME280;28218;53.342;-6.216;2023-12-22T00:22:51;101095.88;;;11.62;100.00
42591;BME280;28218;53.342;-6.216;2023-12-22T00:25:19;101089.44;;;11.65;100.00
42591;BME280;28218;53.342;-6.216;2023-12-22T00:27:47;101090.13;;;11.67;100.00
42591;BME280;28218;53.342;-6.216;2023-12-22T00:30:17;101094.72;;;11.65;100.00
42591;BME280;28218;53.342;-6.216;2023-12-22T00:32:45;101078.06;;;11.64;100.00
42591;BME280;28218;53.342;-6.216;2023-12-22T00:35:14;101083.50;;;11.63;100.00
42591;BME280;28218;53.342;-6.216;2023-12-22T00:37:42;101095.88;;;11.62;100.00
42591;BME280;28218;53.342;-6.216;2023-12-22T00:40:11;101103.31;;;11.59;100.00
42591;BME280;28218;53.342;-6.216;2023-12-22T00:42:39;101107.59;;;11.60;100.00
42591;BME280;28218;53.342;-6.216;2023-12-22T00:45:08;101106.94;;;11.58;100.00
42591;BME280;28218;53.342;-6.216;2023-12-22T00:47:37;101104.63;;;11.55;100.00
42591;BME280;28218;53.342;-6.216;2023-12-22T00:50:06;101104.78;;;11.53;100.00
42591;BME280;28218;53.342;-6.216;2023-12-22T00:52:35;101116.31;;;11.52;100.00
42591;BME280;28218;53.342;-6.216;2023-12-22T00:55:03;101115.19;;;11.55;100.00
42591;BME280;28218;53.342;-6.216;2023-12-22T00:57:32;101098.34;;;11.56;100.00
42591;BME280;28218;53.342;-6.216;2023-12-22T01:00:03;101104.28;;;11.49;100.00
42591;BME280;28218;53.342;-6.216;2023-12-22T01:02:35;101114.84;;;11.49;100.00
42591;BME280;28218;53.342;-6.216;2023-12-22T01:05:06;101106.94;;;11.49;100.00
42591;BME280;28218;53.342;-6.216;2023-12-22T01:07:34;101110.56;;;11.48;100.00
42591;BME280;28218;53.342;-6.216;2023-12-22T01:10:03;101098.34;;;11.47;100.00
42591;BME280;28218;53.342;-6.216;2023-12-22T01:12:32;101096.03;;;11.44;100.00
42591;BME280;28218;53.342;-6.216;2023-12-22T01:15:00;101112.53;;;11.46;100.00
42591;BME280;28218;53.342;-6.216;2023-12-22T01:17:28;101114.50;;;11.44;100.00
42591;BME280;28218;53.342;-6.216;2023-12-22T01:19:57;101081.22;;;11.43;100.00
42591;BME280;28218;53.342;-6.216;2023-12-22T01:22:27;101090.09;;;11.42;100.00
42591;BME280;28218;53.342;-6.216;2023-12-22T01:24:55;101075.59;;;11.46;100.00
42591;BME280;28218;53.342;-6.216;2023-12-22T01:27:23;101087.78;;;11.47;100.00
42591;BME280;28218;53.342;-6.216;2023-12-22T01:29:51;101086.13;;;11.46;100.00
42591;BME280;28218;53.342;-6.216;2023-12-22T01:32:20;101078.53;;;11.51;100.00
42591;BME280;28218;53.342;-6.216;2023-12-22T01:34:48;101069.63;;;11.52;100.00
42591;BME280;28218;53.342;-6.216;2023-12-22T01:37:17;101093.38;;;11.52;100.00
42591;BME280;28218;53.342;-6.216;2023-12-22T01:39:48;101077.06;;;11.57;100.00
42591;BME280;28218;53.342;-6.216;2023-12-22T01:42:16;101070.00;;;11.58;100.00
42591;BME280;28218;53.342;-6.216;2023-12-22T01:44:47;101063.72;;;11.59;100.00
42591;BME280;28218;53.342;-6.216;2023-12-22T01:47:15;101074.28;;;11.59;100.00
42591;BME280;28218;53.342;-6.216;2023-12-22T01:49:43;101063.72;;;11.59;100.00
42591;BME280;28218;53.342;-6.216;2023-12-22T01:52:12;101087.97;;;11.54;100.00
42591;BME280;28218;53.342;-6.216;2023-12-22T01:54:40;101076.72;;;11.52;100.00
42591;BME280;28218;53.342;-6.216;2023-12-22T01:57:13;101082.84;;;11.44;100.00
42591;BME280;28218;53.342;-6.216;2023-12-22T01:59:44;101086.13;;;11.38;100.00
42591;BME280;28218;53.342;-6.216;2023-12-22T02:02:13;101092.06;;;11.32;100.00
42591;BME280;28218;53.342;-6.216;2023-12-22T02:04:41;101084.16;;;11.32;100.00
42591;BME280;28218;53.342;-6.216;2023-12-22T02:07:10;101084.16;;;11.32;100.00
42591;BME280;28218;53.342;-6.216;2023-12-22T02:09:42;101092.75;;;11.34;100.00
42591;BME280;28218;53.342;-6.216;2023-12-22T02:12:11;101090.25;;;11.33;100.00
42591;BME280;28218;53.342;-6.216;2023-12-22T02:14:39;101073.59;;;11.32;100.00
42591;BME280;28218;53.342;-6.216;2023-12-22T02:17:14;101091.75;;;11.35;100.00
42591;BME280;28218;53.342;-6.216;2023-12-22T02:19:48;101084.16;;;11.32;100.00
42591;BME280;28218;53.342;-6.216;2023-12-22T02:22:16;101076.06;;;11.34;100.00
42591;BME280;28218;53.342;-6.216;2023-12-22T02:24:47;101083.50;;;11.30;100.00
42591;BME280;28218;53.342;-6.216;2023-12-22T02:27:31;101093.38;;;11.28;100.00
42591;BME280;28218;53.342;-6.216;2023-12-22T02:30:07;101082.19;;;11.26;100.00
42591;BME280;28218;53.342;-6.216;2023-12-22T02:32:40;101086.47;;;11.27;100.00
42591;BME280;28218;53.342;-6.216;2023-12-22T02:35:11;101089.09;;;11.27;100.00
42591;BME280;28218;53.342;-6.216;2023-12-22T02:37:46;101086.28;;;11.29;100.00
42591;BME280;28218;53.342;-6.216;2023-12-22T02:40:17;101088.09;;;11.28;100.00
42591;BME280;28218;53.342;-6.216;2023-12-22T02:42:46;101093.06;;;11.23;100.00
42591;BME280;28218;53.342;-6.216;2023-12-22T02:45:15;101093.06;;;11.23;100.00
42591;BME280;28218;53.342;-6.216;2023-12-22T02:47:44;101110.53;;;11.24;100.00
42591;BME280;28218;53.342;-6.216;2023-12-22T02:50:13;101101.78;;;11.23;100.00
42591;BME280;28218;53.342;-6.216;2023-12-22T02:52:42;101118.94;;;11.27;100.00
42591;BME280;28218;53.342;-6.216;2023-12-22T02:55:11;101103.28;;;11.26;100.00
42591;BME280;28218;53.342;-6.216;2023-12-22T02:57:41;101099.00;;;11.25;100.00
42591;BME280;28218;53.342;-6.216;2023-12-22T03:00:10;101107.88;;;11.24;100.00
42591;BME280;28218;53.342;-6.216;2023-12-22T03:02:38;101097.34;;;11.24;100.00
42591;BME280;28218;53.342;-6.216;2023-12-22T03:05:07;101099.16;;;11.23;100.00
42591;BME280;28218;53.342;-6.216;2023-12-22T03:07:35;101098.31;;;11.23;100.00
42591;BME280;28218;53.342;-6.216;2023-12-22T03:10:04;101103.59;;;11.23;100.00
42591;BME280;28218;53.342;-6.216;2023-12-22T03:12:32;101095.03;;;11.21;100.00
42591;BME280;28218;53.342;-6.216;2023-12-22T03:15:02;101098.00;;;11.18;100.00
42591;BME280;28218;53.342;-6.216;2023-12-22T03:17:30;101102.13;;;11.20;100.00
42591;BME280;28218;53.342;-6.216;2023-12-22T03:19:58;101098.19;;;11.24;100.00
42591;BME280;28218;53.342;-6.216;2023-12-22T03:22:27;101112.50;;;11.22;100.00
42591;BME280;28218;53.342;-6.216;2023-12-22T03:24:58;101091.56;;;11.20;100.00
42591;BME280;28218;53.342;-6.216;2023-12-22T03:27:26;101096.69;;;11.22;100.00
42591;BME280;28218;53.342;-6.216;2023-12-22T03:30:01;101107.88;;;11.16;100.00
42591;BME280;28218;53.342;-6.216;2023-12-22T03:32:30;101102.44;;;11.17;100.00
42591;BME280;28218;53.342;-6.216;2023-12-22T03:34:58;101093.88;;;11.15;100.00
42591;BME280;28218;53.342;-6.216;2023-12-22T03:37:29;101092.88;;;11.16;100.00
42591;BME280;28218;53.342;-6.216;2023-12-22T03:39:58;101101.59;;;11.09;100.00
42591;BME280;28218;53.342;-6.216;2023-12-22T03:42:26;101082.81;;;11.12;100.00
42591;BME280;28218;53.342;-6.216;2023-12-22T03:44:54;101093.50;;;11.10;100.00
42591;BME280;28218;53.342;-6.216;2023-12-22T03:47:24;101098.97;;;11.09;100.00
42591;BME280;28218;53.342;-6.216;2023-12-22T03:49:52;101099.66;;;11.11;100.00
42591;BME280;28218;53.342;-6.216;2023-12-22T03:52:20;101089.09;;;11.11;100.00
42591;BME280;28218;53.342;-6.216;2023-12-22T03:54:49;101076.72;;;11.11;100.00
42591;BME280;28218;53.342;-6.216;2023-12-22T03:57:17;101098.66;;;11.12;100.00
42591;BME280;28218;53.342;-6.216;2023-12-22T03:59:45;101096.66;;;11.14;100.00
42591;BME280;28218;53.342;-6.216;2023-12-22T04:02:14;101097.97;;;11.10;100.00
42591;BME280;28218;53.342;-6.216;2023-12-22T04:04:43;101100.47;;;11.11;100.00
42591;BME280;28218;53.342;-6.216;2023-12-22T04:07:12;101092.56;;;11.11;100.00
42591;BME280;28218;53.342;-6.216;2023-12-22T04:09:41;101102.41;;;11.09;100.00
42591;BME280;28218;53.342;-6.216;2023-12-22T04:12:10;101091.56;;;11.12;100.00
42591;BME280;28218;53.342;-6.216;2023-12-22T04:14:38;101092.56;;;11.11;100.00
42591;BME280;28218;53.342;-6.216;2023-12-22T04:17:08;101093.69;;;11.09;100.00
42591;BME280;28218;53.342;-6.216;2023-12-22T04:19:37;101097.31;;;11.08;100.00
42591;BME280;28218;53.342;-6.216;2023-12-22T04:22:07;101087.41;;;11.10;100.00
42591;BME280;28218;53.342;-6.216;2023-12-22T04:24:35;101093.88;;;11.15;100.00
42591;BME280;28218;53.342;-6.216;2023-12-22T04:27:03;101098.00;;;11.18;100.00
42591;BME280;28218;53.342;-6.216;2023-12-22T04:29:31;101080.84;;;11.22;100.00
42591;BME280;28218;53.342;-6.216;2023-12-22T04:32:03;101076.22;;;11.24;100.00
42591;BME280;28218;53.342;-6.216;2023-12-22T04:34:31;101074.59;;;11.23;100.00
42591;BME280;28218;53.342;-6.216;2023-12-22T04:37:01;101083.31;;;11.23;100.00
42591;BME280;28218;53.342;-6.216;2023-12-22T04:39:30;101088.28;;;11.26;100.00
42591;BME280;28218;53.342;-6.216;2023-12-22T04:41:59;101067.34;;;11.25;100.00
42591;BME280;28218;53.342;-6.216;2023-12-22T04:44:27;101075.25;;;11.25;100.00
42591;BME280;28218;53.342;-6.216;2023-12-22T04:46:55;101076.56;;;11.29;100.00
42591;BME280;28218;53.342;-6.216;2023-12-22T04:49:24;101077.91;;;11.25;100.00
42591;BME280;28218;53.342;-6.216;2023-12-22T04:51:52;101078.88;;;11.24;100.00
42591;BME280;28218;53.342;-6.216;2023-12-22T04:54:20;101070.81;;;11.25;100.00
42591;BME280;28218;53.342;-6.216;2023-12-22T04:56:50;101085.13;;;11.23;100.00
42591;BME280;28218;53.342;-6.216;2023-12-22T04:59:18;101083.19;;;11.25;100.00
42591;BME280;28218;53.342;-6.216;2023-12-22T05:01:47;101076.09;;;11.25;100.00
42591;BME280;28218;53.342;-6.216;2023-12-22T05:04:15;101085.13;;;11.23;100.00
42591;BME280;28218;53.342;-6.216;2023-12-22T05:06:44;101075.91;;;11.27;100.00
42591;BME280;28218;53.342;-6.216;2023-12-22T05:09:13;101080.38;;;11.26;100.00
42591;BME280;28218;53.342;-6.216;2023-12-22T05:11:44;101092.38;;;11.29;100.00
42591;BME280;28218;53.342;-6.216;2023-12-22T05:14:13;101090.91;;;11.26;100.00
42591;BME280;28218;53.342;-6.216;2023-12-22T05:16:42;101082.69;;;11.30;100.00
42591;BME280;28218;53.342;-6.216;2023-12-22T05:19:13;101092.72;;;11.26;100.00
42591;BME280;28218;53.342;-6.216;2023-12-22T05:21:42;101093.38;;;11.28;100.00
42591;BME280;28218;53.342;-6.216;2023-12-22T05:24:10;101101.28;;;11.28;100.00
42591;BME280;28218;53.342;-6.216;2023-12-22T05:26:41;101107.06;;;11.32;100.00
42591;BME280;28218;53.342;-6.216;2023-12-22T05:29:12;101113.50;;;11.29;100.00
42591;BME280;28218;53.342;-6.216;2023-12-22T05:31:43;101118.63;;;11.31;100.00
42591;BME280;28218;53.342;-6.216;2023-12-22T05:34:13;101134.09;;;11.34;100.00
42591;BME280;28218;53.342;-6.216;2023-12-22T05:36:42;101121.09;;;11.32;100.00
42591;BME280;28218;53.342;-6.216;2023-12-22T05:39:10;101127.88;;;11.35;100.00
42591;BME280;28218;53.342;-6.216;2023-12-22T05:41:39;101106.75;;;11.35;100.00
42591;BME280;28218;53.342;-6.216;2023-12-22T05:44:07;101143.69;;;11.35;100.00
42591;BME280;28218;53.342;-6.216;2023-12-22T05:46:36;101135.28;;;11.31;100.00
42591;BME280;28218;53.342;-6.216;2023-12-22T05:49:07;101137.22;;;11.29;100.00
42591;BME280;28218;53.342;-6.216;2023-12-22T05:51:38;101141.03;;;11.26;100.00
42591;BME280;28218;53.342;-6.216;2023-12-22T05:54:08;101140.88;;;11.20;100.00
42591;BME280;28218;53.342;-6.216;2023-12-22T05:56:37;101148.41;;;11.15;100.00
42591;BME280;28218;53.342;-6.216;2023-12-22T05:59:05;101154.34;;;11.09;100.00
42591;BME280;28218;53.342;-6.216;2023-12-22T06:01:33;101161.91;;;11.04;100.00
42591;BME280;28218;53.342;-6.216;2023-12-22T06:04:02;101155.66;;;10.96;100.00
42591;BME280;28218;53.342;-6.216;2023-12-22T06:06:31;101170.13;;;10.92;100.00
42591;BME280;28218;53.342;-6.216;2023-12-22T06:09:00;101179.16;;;10.90;100.00
42591;BME280;28218;53.342;-6.216;2023-12-22T06:11:28;101164.16;;;10.90;100.00
42591;BME280;28218;53.342;-6.216;2023-12-22T06:13:57;101175.88;;;10.88;100.00
42591;BME280;28218;53.342;-6.216;2023-12-22T06:16:26;101171.44;;;10.88;100.00
42591;BME280;28218;53.342;-6.216;2023-12-22T06:18:54;101169.63;;;10.89;100.00
42591;BME280;28218;53.342;-6.216;2023-12-22T06:21:22;101170.25;;;10.91;100.00
42591;BME280;28218;53.342;-6.216;2023-12-22T06:23:53;101172.75;;;10.92;100.00
42591;BME280;28218;53.342;-6.216;2023-12-22T06:26:21;101155.78;;;10.95;100.00
42591;BME280;28218;53.342;-6.216;2023-12-22T06:28:52;101176.88;;;10.95;100.00
42591;BME280;28218;53.342;-6.216;2023-12-22T06:31:21;101167.84;;;10.97;100.00
42591;BME280;28218;53.342;-6.216;2023-12-22T06:33:50;101178.03;;;11.00;100.00
42591;BME280;28218;53.342;-6.216;2023-12-22T06:36:19;101170.47;;;10.97;100.00
42591;BME280;28218;53.342;-6.216;2023-12-22T06:38:50;101176.75;;;10.96;100.00
42591;BME280;28218;53.342;-6.216;2023-12-22T06:41:21;101165.19;;;10.97;100.00
42591;BME280;28218;53.342;-6.216;2023-12-22T06:43:54;101168.81;;;10.96;100.00
42591;BME280;28218;53.342;-6.216;2023-12-22T06:46:24;101172.13;;;10.98;100.00
42591;BME280;28218;53.342;-6.216;2023-12-22T06:48:54;101173.25;;;10.96;100.00
42591;BME280;28218;53.342;-6.216;2023-12-22T06:51:25;101163.38;;;10.98;100.00
42591;BME280;28218;53.342;-6.216;2023-12-22T06:53:54;101179.38;;;10.96;100.00
42591;BME280;28218;53.342;-6.216;2023-12-22T06:56:25;101184.47;;;10.98;100.00
42591;BME280;28218;53.342;-6.216;2023-12-22T06:58:54;101192.88;;;10.93;100.00
42591;BME280;28218;53.342;-6.216;2023-12-22T07:01:25;101192.56;;;10.96;100.00
42591;BME280;28218;53.342;-6.216;2023-12-22T07:03:54;101191.56;;;10.97;100.00
42591;BME280;28218;53.342;-6.216;2023-12-22T07:06:24;101196.84;;;10.97;100.00
42591;BME280;28218;53.342;-6.216;2023-12-22T07:11:45;101194.53;;;11.03;100.00
42591;BME280;28218;53.342;-6.216;2023-12-22T07:14:14;101182.50;;;11.00;100.00
42591;BME280;28218;53.342;-6.216;2023-12-22T07:16:43;101187.63;;;11.02;100.00
42591;BME280;28218;53.342;-6.216;2023-12-22T07:19:11;101189.28;;;11.03;100.00
42591;BME280;28218;53.342;-6.216;2023-12-22T07:21:40;101197.34;;;11.01;100.00
42591;BME280;28218;53.342;-6.216;2023-12-22T07:24:12;101190.41;;;11.00;100.00
42591;BME280;28218;53.342;-6.216;2023-12-22T07:26:44;101196.19;;;11.04;100.00
42591;BME280;28218;53.342;-6.216;2023-12-22T07:29:12;101198.00;;;11.03;100.00
42591;BME280;28218;53.342;-6.216;2023-12-22T07:31:40;101193.56;;;11.04;100.00
42591;BME280;28218;53.342;-6.216;2023-12-22T07:34:11;101190.09;;;11.03;100.00
42591;BME280;28218;53.342;-6.216;2023-12-22T07:36:39;101193.38;;;10.97;100.00
42591;BME280;28218;53.342;-6.216;2023-12-22T07:39:17;101199.13;;;11.00;100.00
42591;BME280;28218;53.342;-6.216;2023-12-22T07:41:47;101202.63;;;11.01;100.00
42591;BME280;28218;53.342;-6.216;2023-12-22T07:44:15;101203.94;;;11.05;100.00
42591;BME280;28218;53.342;-6.216;2023-12-22T07:46:43;101210.06;;;11.06;100.00
42591;BME280;28218;53.342;-6.216;2023-12-22T07:49:16;101211.50;;;11.00;100.00
42591;BME280;28218;53.342;-6.216;2023-12-22T07:51:45;101200.47;;;10.96;100.00
42591;BME280;28218;53.342;-6.216;2023-12-22T07:54:13;101215.28;;;10.97;100.00
42591;BME280;28218;53.342;-6.216;2023-12-22T07:56:41;101207.53;;;10.96;100.00
42591;BME280;28218;53.342;-6.216;2023-12-22T07:59:11;101214.78;;;10.94;100.00
42591;BME280;28218;53.342;-6.216;2023-12-22T08:01:56;101225.97;;;10.96;100.00
42591;BME280;28218;53.342;-6.216;2023-12-22T08:04:25;101219.06;;;10.95;100.00
42591;BME280;28218;53.342;-6.216;2023-12-22T08:06:53;101238.50;;;10.94;100.00
42591;BME280;28218;53.342;-6.216;2023-12-22T08:09:22;101233.75;;;10.97;100.00
42591;BME280;28218;53.342;-6.216;2023-12-22T08:11:50;101250.69;;;10.95;100.00
42591;BME280;28218;53.342;-6.216;2023-12-22T08:14:25;101249.34;;;10.91;100.00
42591;BME280;28218;53.342;-6.216;2023-12-22T08:16:53;101267.16;;;10.89;100.00
42591;BME280;28218;53.342;-6.216;2023-12-22T08:19:21;101276.88;;;10.88;100.00
42591;BME280;28218;53.342;-6.216;2023-12-22T08:21:53;101271.75;;;10.87;100.00
42591;BME280;28218;53.342;-6.216;2023-12-22T08:24:23;101279.16;;;10.83;100.00
42591;BME280;28218;53.342;-6.216;2023-12-22T08:26:51;101270.78;;;10.88;100.00
42591;BME280;28218;53.342;-6.216;2023-12-22T08:29:19;101284.94;;;10.87;100.00
42591;BME280;28218;53.342;-6.216;2023-12-22T08:31:49;101283.44;;;10.84;100.00
42591;BME280;28218;53.342;-6.216;2023-12-22T08:34:18;101291.66;;;10.81;100.00
42591;BME280;28218;53.342;-6.216;2023-12-22T08:36:46;101284.44;;;10.83;100.00
42591;BME280;28218;53.342;-6.216;2023-12-22T08:39:14;101290.38;;;10.85;100.00
42591;BME280;28218;53.342;-6.216;2023-12-22T08:41:43;101291.66;;;10.81;100.00
42591;BME280;28218;53.342;-6.216;2023-12-22T08:44:11;101298.22;;;10.77;100.00
42591;BME280;28218;53.342;-6.216;2023-12-22T08:46:41;101310.09;;;10.81;100.00
42591;BME280;28218;53.342;-6.216;2023-12-22T08:49:12;101310.28;;;10.80;100.00
42591;BME280;28218;53.342;-6.216;2023-12-22T08:51:40;101303.66;;;10.75;100.00
42591;BME280;28218;53.342;-6.216;2023-12-22T08:54:09;101298.19;;;10.69;100.00
42591;BME280;28218;53.342;-6.216;2023-12-22T08:56:38;101312.84;;;10.71;100.00
42591;BME280;28218;53.342;-6.216;2023-12-22T08:59:06;101329.34;;;10.73;100.00
42591;BME280;28218;53.342;-6.216;2023-12-22T09:01:36;101317.59;;;10.68;100.00
42591;BME280;28218;53.342;-6.216;2023-12-22T09:04:04;101318.56;;;10.67;100.00
42591;BME280;28218;53.342;-6.216;2023-12-22T09:06:37;101312.03;;;10.71;100.00
42591;BME280;28218;53.342;-6.216;2023-12-22T09:09:06;101318.44;;;10.68;100.00
42591;BME280;28218;53.342;-6.216;2023-12-22T09:11:34;101328.47;;;10.65;100.00
42591;BME280;28218;53.342;-6.216;2023-12-22T09:14:05;101329.81;;;10.69;100.00
42591;BME280;28218;53.342;-6.216;2023-12-22T09:16:36;101322.03;;;10.67;100.00
42591;BME280;28218;53.342;-6.216;2023-12-22T09:19:06;101331.47;;;10.70;100.00
42591;BME280;28218;53.342;-6.216;2023-12-22T09:21:35;101331.28;;;10.71;100.00
42591;BME280;28218;53.342;-6.216;2023-12-22T09:24:05;101343.34;;;10.74;100.00
42591;BME280;28218;53.342;-6.216;2023-12-22T09:26:33;101323.38;;;10.71;100.00
42591;BME280;28218;53.342;-6.216;2023-12-22T09:29:01;101337.25;;;10.73;100.00
42591;BME280;28218;53.342;-6.216;2023-12-22T09:31:30;101344.84;;;10.77;100.00
42591;BME280;28218;53.342;-6.216;2023-12-22T09:34:00;101334.00;;;10.80;100.00
42591;BME280;28218;53.342;-6.216;2023-12-22T09:36:30;101334.16;;;10.78;100.00
42591;BME280;28218;53.342;-6.216;2023-12-22T09:38:58;101323.63;;;10.78;100.00
42591;BME280;28218;53.342;-6.216;2023-12-22T09:41:28;101326.75;;;10.82;100.00
42591;BME280;28218;53.342;-6.216;2023-12-22T09:43:57;101323.00;;;10.84;100.00
42591;BME280;28218;53.342;-6.216;2023-12-22T09:46:29;101331.88;;;10.83;100.00
42591;BME280;28218;53.342;-6.216;2023-12-22T09:48:58;101306.66;;;10.81;100.00
42591;BME280;28218;53.342;-6.216;2023-12-22T09:51:29;101316.66;;;10.77;100.00
42591;BME280;28218;53.342;-6.216;2023-12-22T09:53:58;101301.19;;;10.74;100.00
42591;BME280;28218;53.342;-6.216;2023-12-22T09:56:33;101314.56;;;10.81;100.00
42591;BME280;28218;53.342;-6.216;2023-12-22T09:59:01;101314.78;;;10.87;100.00
42591;BME280;28218;53.342;-6.216;2023-12-22T10:01:29;101331.78;;;10.93;100.00
42591;BME280;28218;53.342;-6.216;2023-12-22T10:03:59;101331.44;;;10.96;100.00
42591;BME280;28218;53.342;-6.216;2023-12-22T10:06:28;101331.16;;;10.99;100.00
42591;BME280;28218;53.342;-6.216;2023-12-22T10:08:56;101327.88;;;11.05;100.00
42591;BME280;28218;53.342;-6.216;2023-12-22T10:11:25;101326.91;;;11.06;100.00
42591;BME280;28218;53.342;-6.216;2023-12-22T10:13:56;101347.69;;;11.09;100.00
42591;BME280;28218;53.342;-6.216;2023-12-22T10:16:25;101333.69;;;11.09;100.00
42591;BME280;28218;53.342;-6.216;2023-12-22T10:18:54;101330.41;;;11.15;100.00
42591;BME280;28218;53.342;-6.216;2023-12-22T10:21:23;101337.34;;;11.16;100.00
42591;BME280;28218;53.342;-6.216;2023-12-22T10:23:51;101345.28;;;11.16;100.00
42591;BME280;28218;53.342;-6.216;2023-12-22T10:26:20;101331.91;;;11.17;100.00
42591;BME280;28218;53.342;-6.216;2023-12-22T10:28:48;101335.91;;;11.21;100.00
42591;BME280;28218;53.342;-6.216;2023-12-22T10:31:18;101343.66;;;11.23;100.00
42591;BME280;28218;53.342;-6.216;2023-12-22T10:33:47;101346.97;;;11.25;100.00
42591;BME280;28218;53.342;-6.216;2023-12-22T10:36:15;101337.25;;;11.25;100.00
42591;BME280;28218;53.342;-6.216;2023-12-22T10:38:44;101350.78;;;11.31;100.00
42591;BME280;28218;53.342;-6.216;2023-12-22T10:41:13;101337.72;;;11.29;100.00
42591;BME280;28218;53.342;-6.216;2023-12-22T10:43:41;101326.56;;;11.35;100.00
42591;BME280;28218;53.342;-6.216;2023-12-22T10:46:11;101342.06;;;11.38;100.00
42591;BME280;28218;53.342;-6.216;2023-12-22T10:48:45;101322.63;;;11.39;100.00
42591;BME280;28218;53.342;-6.216;2023-12-22T10:51:14;101360.91;;;11.43;100.00
42591;BME280;28218;53.342;-6.216;2023-12-22T10:53:43;101342.06;;;11.38;100.00
42591;BME280;28218;53.342;-6.216;2023-12-22T10:56:12;101331.50;;;11.38;100.00
42591;BME280;28218;53.342;-6.216;2023-12-22T10:58:42;101326.75;;;11.42;100.00
42591;BME280;28218;53.342;-6.216;2023-12-22T11:01:14;101351.47;;;11.41;100.00
42591;BME280;28218;53.342;-6.216;2023-12-22T11:03:44;101349.66;;;11.41;100.00
42591;BME280;28218;53.342;-6.216;2023-12-22T11:06:19;101364.22;;;11.45;100.00
42591;BME280;28218;53.342;-6.216;2023-12-22T11:08:52;101342.44;;;11.43;100.00
42591;BME280;28218;53.342;-6.216;2023-12-22T11:11:27;101380.16;;;11.36;100.00
42591;BME280;28218;53.342;-6.216;2023-12-22T11:13:56;101372.25;;;11.36;100.00
42591;BME280;28218;53.342;-6.216;2023-12-22T11:16:28;101390.06;;;11.42;100.00
42591;BME280;28218;53.342;-6.216;2023-12-22T11:18:59;101390.28;;;11.48;100.00
42591;BME280;28218;53.342;-6.216;2023-12-22T11:21:27;101406.78;;;11.50;100.00
42591;BME280;28218;53.342;-6.216;2023-12-22T11:23:57;101392.94;;;11.57;100.00
42591;BME280;28218;53.342;-6.216;2023-12-22T11:26:25;101370.88;;;11.58;100.00
42591;BME280;28218;53.342;-6.216;2023-12-22T11:28:53;101387.38;;;11.60;100.00
42591;BME280;28218;53.342;-6.216;2023-12-22T11:31:23;101389.84;;;11.61;100.00
42591;BME280;28218;53.342;-6.216;2023-12-22T11:33:54;101373.34;;;11.59;100.00
42591;BME280;28218;53.342;-6.216;2023-12-22T11:36:38;101392.47;;;11.61;100.00
42591;BME280;28218;53.342;-6.216;2023-12-22T11:39:06;101393.69;;;11.67;100.00
42591;BME280;28218;53.342;-6.216;2023-12-22T11:41:36;101385.91;;;11.65;100.00
42591;BME280;28218;53.342;-6.216;2023-12-22T11:44:06;101385.25;;;11.63;100.00
42591;BME280;28218;53.342;-6.216;2023-12-22T11:46:37;101379.13;;;11.63;100.00
42591;BME280;28218;53.342;-6.216;2023-12-22T11:49:06;101393.00;;;11.65;100.00
42591;BME280;28218;53.342;-6.216;2023-12-22T11:51:35;101405.53;;;11.63;100.00
42591;BME280;28218;53.342;-6.216;2023-12-22T11:57:33;101379.97;;;11.63;100.00
42591;BME280;28218;53.342;-6.216;2023-12-22T12:00:04;101396.16;;;11.68;100.00
42591;BME280;28218;53.342;-6.216;2023-12-22T12:02:35;101369.75;;;11.68;100.00
42591;BME280;28218;53.342;-6.216;2023-12-22T12:05:07;101387.88;;;11.71;100.00
42591;BME280;28218;53.342;-6.216;2023-12-22T12:07:41;101384.75;;;11.68;100.00
42591;BME280;28218;53.342;-6.216;2023-12-22T12:10:51;101383.44;;;11.64;100.00
42591;BME280;28218;53.342;-6.216;2023-12-22T12:13:23;101365.31;;;11.77;100.00
42591;BME280;28218;53.342;-6.216;2023-12-22T12:15:55;101381.81;;;11.79;100.00
42591;BME280;28218;53.342;-6.216;2023-12-22T12:18:23;101354.78;;;11.77;100.00
42591;BME280;28218;53.342;-6.216;2023-12-22T12:20:52;101375.22;;;11.75;100.00
42591;BME280;28218;53.342;-6.216;2023-12-22T12:23:23;101380.34;;;11.76;100.00
42591;BME280;28218;53.342;-6.216;2023-12-22T12:25:56;101386.13;;;11.80;100.00
42591;BME280;28218;53.342;-6.216;2023-12-22T12:28:25;101377.72;;;11.76;100.00
42591;BME280;28218;53.342;-6.216;2023-12-22T12:30:57;101380.19;;;11.78;100.00
42591;BME280;28218;53.342;-6.216;2023-12-22T12:33:27;101363.00;;;11.74;100.00
42591;BME280;28218;53.342;-6.216;2023-12-22T12:35:58;101366.16;;;11.77;100.00
42591;BME280;28218;53.342;-6.216;2023-12-22T12:38:40;101365.97;;;11.79;100.00
42591;BME280;28218;53.342;-6.216;2023-12-22T12:41:15;101359.56;;;11.82;100.00
42591;BME280;28218;53.342;-6.216;2023-12-22T12:43:47;101370.00;;;11.83;100.00
42591;BME280;28218;53.342;-6.216;2023-12-22T12:46:16;101373.97;;;11.87;100.00
42591;BME280;28218;53.342;-6.216;2023-12-22T12:48:44;101345.56;;;11.89;100.00